createdAt,value
2023-04-06T00:00:01.112Z,15.50
2023-04-06T00:02:35.183Z,13.00
2023-04-06T00:05:03.918Z,14.80
2023-04-06T00:07:34.466Z,14.20
2023-04-06T00:10:04.407Z,14.90
2023-04-06T00:12:35.944Z,15.50
2023-04-06T00:15:06.750Z,21.00
2023-04-06T00:17:35.423Z,23.20
2023-04-06T00:20:05.468Z,27.00
2023-04-06T00:22:34.945Z,32.70
2023-04-06T00:25:03.315Z,26.30
2023-04-06T00:27:31.864Z,31.20
2023-04-06T00:30:00.187Z,32.10
2023-04-06T00:32:29.157Z,38.20
2023-04-06T00:35:13.527Z,37.50
2023-04-06T00:37:42.195Z,28.70
2023-04-06T00:40:11.534Z,32.20
2023-04-06T00:42:42.449Z,33.10
2023-04-06T00:45:11.653Z,29.90
2023-04-06T00:47:41.447Z,34.10
2023-04-06T00:50:10.735Z,34.20
2023-04-06T00:52:39.071Z,34.60
2023-04-06T00:55:08.571Z,33.40
2023-04-06T00:57:40.536Z,27.50
2023-04-06T01:00:09.683Z,27.00
2023-04-06T01:02:39.456Z,27.40
2023-04-06T01:05:08.949Z,21.90
2023-04-06T01:07:51.612Z,19.20
2023-04-06T01:10:25.935Z,20.50
2023-04-06T01:12:56.403Z,21.10
2023-04-06T01:15:42.698Z,16.50
2023-04-06T01:18:12.115Z,17.80
2023-04-06T01:20:43.420Z,22.10
2023-04-06T01:23:12.453Z,19.60
2023-04-06T01:25:41.790Z,21.00
2023-04-06T01:28:12.289Z,18.80
2023-04-06T01:30:59.413Z,20.50
2023-04-06T01:34:00.287Z,21.40
2023-04-06T01:36:29.382Z,21.00
2023-04-06T01:39:08.584Z,20.20
2023-04-06T01:41:39.231Z,20.30
2023-04-06T01:44:07.502Z,21.40
2023-04-06T01:46:36.089Z,21.00
2023-04-06T01:49:06.522Z,22.70
2023-04-06T01:51:41.460Z,19.60
2023-04-06T01:54:12.989Z,20.30
2023-04-06T01:57:06.784Z,21.40
2023-04-06T01:59:41.440Z,23.00
2023-04-06T02:05:04.808Z,22.50
2023-04-06T02:07:39.580Z,21.40
2023-04-06T02:10:15.741Z,19.60
2023-04-06T02:12:45.231Z,18.80
2023-04-06T02:15:16.540Z,18.90
2023-04-06T02:17:46.073Z,19.00
2023-04-06T02:20:14.499Z,16.70
2023-04-06T02:22:49.470Z,16.60
2023-04-06T02:25:18.245Z,16.80
2023-04-06T02:27:46.605Z,17.20
2023-04-06T02:37:54.953Z,17.40
2023-04-06T02:40:23.551Z,16.70
2023-04-06T02:42:52.400Z,15.30
2023-04-06T02:45:26.154Z,16.30
2023-04-06T02:47:55.223Z,18.80
2023-04-06T02:50:24.330Z,15.60
2023-04-06T02:52:58.755Z,17.00
2023-04-06T02:55:27.352Z,13.60
2023-04-06T02:57:56.483Z,13.20
2023-04-06T03:00:29.168Z,14.60
2023-04-06T03:02:58.971Z,13.20
2023-04-06T03:05:28.389Z,13.90
2023-04-06T03:07:56.735Z,13.90
2023-04-06T03:10:34.051Z,12.30
2023-04-06T03:13:04.708Z,12.30
2023-04-06T03:15:56.264Z,13.50
2023-04-06T03:18:26.294Z,12.80
2023-04-06T03:20:56.107Z,9.90
2023-04-06T03:23:33.732Z,13.00
2023-04-06T03:26:05.014Z,10.80
2023-04-06T03:28:33.383Z,12.20
2023-04-06T03:31:11.339Z,11.80
2023-04-06T03:34:06.637Z,9.40
2023-04-06T03:36:37.342Z,10.20
2023-04-06T03:39:06.731Z,12.10
2023-04-06T03:41:37.286Z,13.30
2023-04-06T03:44:31.158Z,14.80
2023-04-06T03:47:00.086Z,18.70
2023-04-06T03:49:30.681Z,20.20
2023-04-06T03:51:59.486Z,24.90
2023-04-06T03:54:27.854Z,29.00
2023-04-06T03:56:56.788Z,29.10
2023-04-06T03:59:32.454Z,28.50
2023-04-06T04:02:02.910Z,31.60
2023-04-06T04:04:32.166Z,30.60
2023-04-06T04:07:00.574Z,30.30
2023-04-06T04:09:31.325Z,31.50
2023-04-06T04:11:59.917Z,25.50
2023-04-06T04:14:28.399Z,24.10
2023-04-06T04:16:56.829Z,23.40
2023-04-06T04:19:25.708Z,27.80
2023-04-06T04:21:54.579Z,24.00
2023-04-06T04:24:31.232Z,23.80
2023-04-06T04:27:02.149Z,24.20
2023-04-06T04:29:31.631Z,21.30
2023-04-06T04:32:04.397Z,20.60
2023-04-06T04:34:34.090Z,18.40
2023-04-06T04:37:05.109Z,19.70
2023-04-06T04:39:46.755Z,21.10
2023-04-06T04:42:15.646Z,19.50
2023-04-06T04:44:49.701Z,20.90
2023-04-06T04:47:22.033Z,22.70
2023-04-06T04:49:50.651Z,26.60
2023-04-06T04:52:22.425Z,26.60
2023-04-06T04:54:58.458Z,24.30
2023-04-06T04:57:30.110Z,29.90
2023-04-06T04:59:59.306Z,25.10
2023-04-06T05:02:27.795Z,28.40
2023-04-06T05:05:12.541Z,26.40
2023-04-06T05:07:41.289Z,27.40
2023-04-06T05:10:15.740Z,29.40
2023-04-06T05:12:52.727Z,28.60
2023-04-06T05:15:21.445Z,33.00
2023-04-06T05:17:53.943Z,32.80
2023-04-06T05:20:26.655Z,33.90
2023-04-06T05:22:55.217Z,33.80
2023-04-06T05:25:27.999Z,31.60
2023-04-06T05:27:58.908Z,30.50
2023-04-06T05:30:34.644Z,30.90
2023-04-06T05:33:04.357Z,32.90
2023-04-06T05:35:41.520Z,33.60
2023-04-06T05:38:12.359Z,34.50
2023-04-06T05:40:42.281Z,32.10
2023-04-06T05:43:13.390Z,32.20
2023-04-06T05:45:46.362Z,32.70
2023-04-06T05:48:14.743Z,29.40
2023-04-06T05:50:43.133Z,29.80
2023-04-06T05:53:12.679Z,28.10
2023-04-06T05:58:18.433Z,23.10
2023-04-06T06:00:49.098Z,21.60
2023-04-06T06:03:29.269Z,19.40
2023-04-06T06:06:03.593Z,19.50
2023-04-06T06:08:40.845Z,17.60
2023-04-06T06:11:18.036Z,17.20
2023-04-06T06:13:47.939Z,16.30
2023-04-06T06:16:16.590Z,18.20
2023-04-06T06:18:50.431Z,13.80
2023-04-06T06:21:18.957Z,15.30
2023-04-06T06:23:49.695Z,13.60
2023-04-06T06:26:19.583Z,12.40
2023-04-06T06:28:48.338Z,13.70
2023-04-06T06:31:17.389Z,10.70
2023-04-06T06:33:51.320Z,10.50
2023-04-06T06:36:20.666Z,9.70
2023-04-06T06:38:49.130Z,9.50
2023-04-06T06:41:19.994Z,8.80
2023-04-06T06:43:49.018Z,8.20
2023-04-06T06:46:17.516Z,7.50
2023-04-06T06:48:46.233Z,6.90
2023-04-06T06:51:14.662Z,7.30
2023-04-06T06:53:43.253Z,6.10
2023-04-06T06:56:12.607Z,6.20
2023-04-06T06:58:41.784Z,5.00
2023-04-06T07:01:11.654Z,5.60
2023-04-06T07:03:40.876Z,4.80
2023-04-06T07:06:15.046Z,5.50
2023-04-06T07:08:43.720Z,5.50
2023-04-06T07:11:12.059Z,5.20
2023-04-06T07:13:40.663Z,6.40
2023-04-06T07:16:09.837Z,5.20
2023-04-06T07:18:38.815Z,5.70
2023-04-06T07:21:08.615Z,5.30
2023-04-06T07:23:37.600Z,5.10
2023-04-06T07:26:05.961Z,5.30
2023-04-06T07:28:36.596Z,5.40
2023-04-06T07:31:05.213Z,6.70
2023-04-06T07:33:40.018Z,7.30
2023-04-06T07:36:08.733Z,6.10
2023-04-06T07:38:37.787Z,12.30
2023-04-06T07:41:06.325Z,17.80
2023-04-06T07:43:35.062Z,18.70
2023-04-06T07:46:04.179Z,18.50
2023-04-06T07:48:36.409Z,18.20
2023-04-06T07:51:06.159Z,21.70
2023-04-06T07:53:35.746Z,22.20
2023-04-06T07:56:04.450Z,20.60
2023-04-06T07:58:33.001Z,20.80
2023-04-06T08:01:05.430Z,20.70
2023-04-06T08:03:36.267Z,17.10
2023-04-06T08:06:05.248Z,15.80
2023-04-06T08:08:33.952Z,11.30
2023-04-06T08:11:03.829Z,10.50
2023-04-06T08:13:32.712Z,8.00
2023-04-06T08:16:01.728Z,8.00
2023-04-06T08:18:31.197Z,9.20
2023-04-06T08:20:59.536Z,9.10
2023-04-06T08:23:28.641Z,7.30
2023-04-06T08:25:57.347Z,8.50
2023-04-06T08:28:26.464Z,7.10
2023-04-06T08:30:55.076Z,6.80
2023-04-06T08:33:23.576Z,7.40
2023-04-06T08:35:51.950Z,8.50
2023-04-06T08:38:20.590Z,5.40
2023-04-06T08:40:50.963Z,4.80
2023-04-06T08:43:19.294Z,4.10
2023-04-06T08:45:47.667Z,3.30
2023-04-06T08:48:16.070Z,3.10
2023-04-06T08:50:46.408Z,3.40
2023-04-06T08:53:14.776Z,2.90
2023-04-06T08:55:44.227Z,2.50
2023-04-06T08:58:12.674Z,3.10
2023-04-06T09:00:41.175Z,4.60
2023-04-06T09:03:27.667Z,9.30
2023-04-06T09:05:56.932Z,3.60
2023-04-06T09:08:27.372Z,6.70
2023-04-06T09:10:56.000Z,10.40
2023-04-06T09:13:25.486Z,5.00
2023-04-06T09:16:05.441Z,5.20
2023-04-06T09:18:34.385Z,4.70
2023-04-06T09:21:05.508Z,4.60
2023-04-06T09:23:34.992Z,6.70
2023-04-06T09:26:16.796Z,8.40
2023-04-06T09:28:55.701Z,2.80
2023-04-06T09:31:24.846Z,3.40
2023-04-06T09:33:53.798Z,2.00
2023-04-06T09:36:36.131Z,2.50
2023-04-06T09:41:34.639Z,0.90
2023-04-06T09:44:06.387Z,1.90
2023-04-06T09:46:57.800Z,3.80
2023-04-06T09:49:32.219Z,2.70
2023-04-06T09:54:32.212Z,4.40
2023-04-06T09:57:30.749Z,3.80
2023-04-06T10:00:01.505Z,3.00
2023-04-06T10:02:47.540Z,3.20
2023-04-06T10:05:44.927Z,3.00
2023-04-06T10:08:13.619Z,3.40
2023-04-06T10:10:42.454Z,12.20
2023-04-06T10:13:13.961Z,5.90
2023-04-06T10:15:42.873Z,4.30
2023-04-06T10:18:11.904Z,3.00
2023-04-06T10:20:52.699Z,1.90
2023-04-06T10:23:44.655Z,1.60
2023-04-06T10:26:17.993Z,2.60
2023-04-06T10:28:47.437Z,2.50
2023-04-06T10:31:17.073Z,2.30
2023-04-06T10:33:55.943Z,2.00
2023-04-06T10:36:27.556Z,2.30
2023-04-06T10:39:00.381Z,3.30
2023-04-06T10:41:46.000Z,3.20
2023-04-06T10:44:27.018Z,2.60
2023-04-06T10:46:59.018Z,2.80
2023-04-06T10:49:27.976Z,1.60
2023-04-06T10:51:57.170Z,1.10
2023-04-06T10:54:27.179Z,1.70
2023-04-06T10:56:57.277Z,1.30
2023-04-06T10:59:26.706Z,2.00
2023-04-06T11:01:57.111Z,2.30
2023-04-06T11:04:26.297Z,2.70
2023-04-06T11:06:56.294Z,2.10
2023-04-06T11:09:30.992Z,1.80
2023-04-06T11:11:59.478Z,3.80
2023-04-06T11:14:31.779Z,2.70
2023-04-06T11:17:00.512Z,12.90
2023-04-06T11:19:29.791Z,6.60
2023-04-06T11:21:59.843Z,5.90
2023-04-06T11:24:28.678Z,6.40
2023-04-06T11:27:00.661Z,4.60
2023-04-06T11:29:31.657Z,4.60
2023-04-06T11:32:05.560Z,5.20
2023-04-06T11:34:39.739Z,4.60
2023-04-06T11:37:10.468Z,4.30
2023-04-06T11:39:52.000Z,3.20
2023-04-06T11:42:28.196Z,4.00
2023-04-06T11:45:00.396Z,3.30
2023-04-06T11:47:37.188Z,2.70
2023-04-06T11:50:11.466Z,3.20
2023-04-06T11:52:44.269Z,3.90
2023-04-06T11:55:19.796Z,3.50
2023-04-06T11:57:48.162Z,4.40
2023-04-06T12:00:17.378Z,4.10
2023-04-06T12:02:49.917Z,3.80
2023-04-06T12:05:18.615Z,3.50
2023-04-06T12:07:51.053Z,4.80
2023-04-06T12:10:19.369Z,4.80
2023-04-06T12:12:48.152Z,3.40
2023-04-06T12:15:17.449Z,4.00
2023-04-06T12:17:47.077Z,3.30
2023-04-06T12:20:25.784Z,3.70
2023-04-06T12:22:56.529Z,6.00
2023-04-06T12:25:25.706Z,3.50
2023-04-06T12:27:56.030Z,4.20
2023-04-06T12:30:25.144Z,3.90
2023-04-06T12:33:01.361Z,4.30
2023-04-06T12:35:30.210Z,4.50
2023-04-06T12:37:58.552Z,4.80
2023-04-06T12:40:26.972Z,4.50
2023-04-06T12:42:55.905Z,4.50
2023-04-06T12:45:28.224Z,4.30
2023-04-06T12:47:56.905Z,4.00
2023-04-06T12:50:25.625Z,10.70
2023-04-06T12:52:57.015Z,9.00
2023-04-06T12:55:26.219Z,7.30
2023-04-06T12:57:55.268Z,5.00
2023-04-06T13:00:24.605Z,4.10
2023-04-06T13:02:53.573Z,4.30
2023-04-06T13:05:22.018Z,4.10
2023-04-06T13:07:51.129Z,6.40
2023-04-06T13:10:19.959Z,5.00
2023-04-06T13:12:48.541Z,3.80
2023-04-06T13:15:22.090Z,7.40
2023-04-06T13:17:51.932Z,5.60
2023-04-06T13:20:21.661Z,6.80
2023-04-06T13:22:50.488Z,4.90
2023-04-06T13:25:18.935Z,4.70
2023-04-06T13:27:51.139Z,4.00
2023-04-06T13:30:20.063Z,4.80
2023-04-06T13:32:48.511Z,5.20
2023-04-06T13:35:18.026Z,5.20
2023-04-06T13:37:46.366Z,6.00
2023-04-06T13:40:14.808Z,4.30
2023-04-06T13:42:45.312Z,5.20
2023-04-06T13:45:14.970Z,4.30
2023-04-06T13:47:43.545Z,5.40
2023-04-06T13:50:12.272Z,5.40
2023-04-06T13:52:41.975Z,4.30
2023-04-06T13:55:10.312Z,21.60
2023-04-06T13:57:42.648Z,21.00
2023-04-06T14:00:12.943Z,13.50
2023-04-06T14:02:42.688Z,8.70
2023-04-06T14:05:11.636Z,10.40
2023-04-06T14:07:41.503Z,5.90
2023-04-06T14:10:14.957Z,4.00
2023-04-06T14:12:45.407Z,4.60
2023-04-06T14:15:13.631Z,4.50
2023-04-06T14:17:45.055Z,6.00
2023-04-06T14:20:15.321Z,3.90
2023-04-06T14:22:44.199Z,7.10
2023-04-06T14:25:13.798Z,8.20
2023-04-06T14:27:43.924Z,7.90
2023-04-06T14:30:13.258Z,8.10
2023-04-06T14:32:42.034Z,10.60
2023-04-06T14:35:10.989Z,6.80
2023-04-06T14:37:40.171Z,7.30
2023-04-06T14:40:09.056Z,5.30
2023-04-06T14:42:37.936Z,5.30
2023-04-06T14:45:06.999Z,5.00
2023-04-06T14:47:36.310Z,5.30
2023-04-06T14:50:06.087Z,5.10
2023-04-06T14:52:34.438Z,4.40
2023-04-06T14:55:02.698Z,5.50
2023-04-06T14:57:32.132Z,4.30
2023-04-06T15:00:00.900Z,4.80
2023-04-06T15:02:30.715Z,4.80
2023-04-06T15:04:59.052Z,5.10
2023-04-06T15:07:27.264Z,4.30
2023-04-06T15:09:55.748Z,6.50
2023-04-06T15:12:24.075Z,6.50
2023-04-06T15:14:56.164Z,5.60
2023-04-06T15:17:25.603Z,4.50
2023-04-06T15:19:54.785Z,6.70
2023-04-06T15:22:23.669Z,6.20
2023-04-06T15:24:52.020Z,6.10
2023-04-06T15:27:20.816Z,5.70
2023-04-06T15:29:49.547Z,5.20
2023-04-06T15:32:18.104Z,6.30
2023-04-06T15:34:48.923Z,6.60
2023-04-06T15:37:18.794Z,5.10
2023-04-06T15:39:47.030Z,5.30
2023-04-06T15:42:15.592Z,6.30
2023-04-06T15:44:44.118Z,17.30
2023-04-06T15:47:12.471Z,13.70
2023-04-06T15:49:40.905Z,11.70
2023-04-06T15:52:17.393Z,23.00
2023-04-06T15:54:47.767Z,19.00
2023-04-06T15:57:16.136Z,7.80
2023-04-06T15:59:45.083Z,8.50
2023-04-06T16:02:13.966Z,6.70
2023-04-06T16:04:42.508Z,8.30
2023-04-06T16:07:11.192Z,6.40
2023-04-06T16:09:41.187Z,9.90
2023-04-06T16:12:09.982Z,7.70
2023-04-06T16:14:44.941Z,7.00
2023-04-06T16:17:14.031Z,7.10
2023-04-06T16:19:42.228Z,8.70
2023-04-06T16:22:21.931Z,6.20
2023-04-06T16:24:50.199Z,5.00
2023-04-06T16:27:18.462Z,6.90
2023-04-06T16:29:46.895Z,11.20
2023-04-06T16:32:15.704Z,13.40
2023-04-06T16:34:43.896Z,7.40
2023-04-06T16:37:12.676Z,7.00
2023-04-06T16:39:41.069Z,12.00
2023-04-06T16:42:09.333Z,14.70
2023-04-06T16:44:37.599Z,6.50
2023-04-06T16:47:07.253Z,6.40
2023-04-06T16:49:35.558Z,6.40
2023-04-06T16:52:06.263Z,7.60
2023-04-06T16:54:35.465Z,7.30
2023-04-06T16:57:06.461Z,9.40
2023-04-06T16:59:35.149Z,7.00
2023-04-06T17:02:04.343Z,5.90
2023-04-06T17:04:33.179Z,8.10
2023-04-06T17:07:01.613Z,7.70
2023-04-06T17:12:07.075Z,14.90
2023-04-06T17:14:35.659Z,9.00
2023-04-06T17:17:04.299Z,6.50
2023-04-06T17:19:36.812Z,8.50
2023-04-06T17:22:05.591Z,6.40
2023-04-06T17:24:35.713Z,8.20
2023-04-06T17:27:04.094Z,6.10
2023-04-06T17:29:36.485Z,5.90
2023-04-06T17:32:06.778Z,6.30
2023-04-06T17:34:35.142Z,7.60
2023-04-06T17:37:03.627Z,6.60
2023-04-06T17:39:32.204Z,5.50
2023-04-06T17:42:00.477Z,6.90
2023-04-06T17:44:28.921Z,8.30
2023-04-06T17:46:57.798Z,9.90
2023-04-06T17:49:26.206Z,6.50
2023-04-06T17:51:54.933Z,7.60
2023-04-06T17:54:23.181Z,8.70
2023-04-06T17:56:53.556Z,7.40
2023-04-06T17:59:21.838Z,8.80
2023-04-06T18:01:52.077Z,8.50
2023-04-06T18:04:20.926Z,10.70
2023-04-06T18:06:50.555Z,8.80
2023-04-06T18:09:18.937Z,8.00
2023-04-06T18:11:48.892Z,6.90
2023-04-06T18:14:17.653Z,5.30
2023-04-06T18:16:48.199Z,12.00
2023-04-06T18:19:16.885Z,9.50
2023-04-06T18:21:45.285Z,12.10
2023-04-06T18:24:27.371Z,12.50
2023-04-06T18:27:02.111Z,9.50
2023-04-06T18:29:39.719Z,5.70
2023-04-06T18:32:08.866Z,6.00
2023-04-06T18:34:37.463Z,6.90
2023-04-06T18:37:08.478Z,6.70
2023-04-06T18:39:37.170Z,6.00
2023-04-06T18:42:06.167Z,8.00
2023-04-06T18:44:35.170Z,8.40
2023-04-06T18:47:04.535Z,6.90
2023-04-06T18:49:33.982Z,7.90
2023-04-06T18:52:03.495Z,6.50
2023-04-06T18:54:32.116Z,5.60
2023-04-06T18:57:03.590Z,8.90
2023-04-06T18:59:33.998Z,6.50
2023-04-06T19:02:05.751Z,7.80
2023-04-06T19:04:35.111Z,5.50
2023-04-06T19:07:06.926Z,10.10
2023-04-06T19:09:41.766Z,11.10
2023-04-06T19:12:12.041Z,10.80
2023-04-06T19:14:40.689Z,10.70
2023-04-06T19:17:13.219Z,8.50
2023-04-06T19:19:42.678Z,7.30
2023-04-06T19:22:11.856Z,10.30
2023-04-06T19:24:42.794Z,9.40
2023-04-06T19:27:11.412Z,6.90
2023-04-06T19:29:43.757Z,7.00
2023-04-06T19:32:12.977Z,8.40
2023-04-06T19:34:42.055Z,10.70
2023-04-06T19:37:10.969Z,9.40
2023-04-06T19:39:40.452Z,13.70
2023-04-06T19:42:11.338Z,8.60
2023-04-06T19:44:40.101Z,7.70
2023-04-06T19:47:09.263Z,9.10
2023-04-06T19:49:38.314Z,9.30
2023-04-06T19:52:10.252Z,11.00
2023-04-06T19:54:39.852Z,7.60
2023-04-06T19:57:08.439Z,7.80
2023-04-06T19:59:36.847Z,5.40
2023-04-06T20:02:08.288Z,7.50
2023-04-06T20:04:37.712Z,11.30
2023-04-06T20:07:06.736Z,10.70
2023-04-06T20:09:35.570Z,7.70
2023-04-06T20:12:04.358Z,7.40
2023-04-06T20:14:32.908Z,7.60
2023-04-06T20:17:01.877Z,7.40
2023-04-06T20:19:30.821Z,5.50
2023-04-06T20:22:03.455Z,7.30
2023-04-06T20:24:35.906Z,6.90
2023-04-06T20:27:04.840Z,7.90
2023-04-06T20:29:33.730Z,9.20
2023-04-06T20:32:02.593Z,8.30
2023-04-06T20:34:32.410Z,8.40
2023-04-06T20:37:01.264Z,9.40
2023-04-06T20:39:32.834Z,10.20
2023-04-06T20:42:01.596Z,8.90
2023-04-06T20:44:35.893Z,8.90
2023-04-06T20:47:04.647Z,9.40
2023-04-06T20:49:33.021Z,8.90
2023-04-06T20:52:02.905Z,11.60
2023-04-06T20:54:31.681Z,8.40
2023-04-06T20:57:01.304Z,8.50
2023-04-06T20:59:30.073Z,7.90
2023-04-06T21:01:58.576Z,8.20
2023-04-06T21:04:28.310Z,7.40
2023-04-06T21:06:56.888Z,8.10
2023-04-06T21:09:28.320Z,8.20
2023-04-06T21:11:58.892Z,10.70
2023-04-06T21:14:28.077Z,9.00
2023-04-06T21:16:57.085Z,11.20
2023-04-06T21:19:27.857Z,12.30
2023-04-06T21:21:56.236Z,11.90
2023-04-06T21:24:29.620Z,10.20
2023-04-06T21:26:57.898Z,8.90
2023-04-06T21:29:32.109Z,9.30
2023-04-06T21:32:01.365Z,9.90
2023-04-06T21:34:30.094Z,10.20
2023-04-06T21:37:04.328Z,8.50
2023-04-06T21:39:32.700Z,9.30
2023-04-06T21:42:00.930Z,10.30
2023-04-06T21:44:30.172Z,9.10
2023-04-06T21:46:58.623Z,9.10
2023-04-06T21:49:26.974Z,10.70
2023-04-06T21:51:56.529Z,8.60
2023-04-06T21:54:25.689Z,9.60
2023-04-06T21:59:16.129Z,10.10
2023-04-06T22:01:44.772Z,10.00
2023-04-06T22:04:13.394Z,9.20
2023-04-06T22:06:43.212Z,9.90
2023-04-06T22:09:11.525Z,10.90
2023-04-06T22:11:48.627Z,10.50
2023-04-06T22:14:19.223Z,10.90
2023-04-06T22:16:48.060Z,11.20
2023-04-06T22:19:25.752Z,9.30
2023-04-06T22:21:54.069Z,11.40
2023-04-06T22:24:22.325Z,10.00
2023-04-06T22:26:52.310Z,10.80
2023-04-06T22:29:20.860Z,11.00
2023-04-06T22:31:51.649Z,10.00
2023-04-06T22:34:20.183Z,11.40
2023-04-06T22:36:48.485Z,10.80
2023-04-06T22:41:50.460Z,9.50
2023-04-06T22:44:20.306Z,11.40
2023-04-06T22:46:48.755Z,9.80
2023-04-06T22:49:17.127Z,10.40
2023-04-06T22:51:46.252Z,10.60
2023-04-06T22:54:14.643Z,9.10
2023-04-06T22:56:43.512Z,9.30
2023-04-06T22:59:11.790Z,9.90
2023-04-06T23:01:40.683Z,10.00
2023-04-06T23:04:10.287Z,8.70
2023-04-06T23:06:38.924Z,9.00
2023-04-06T23:09:07.156Z,8.90
2023-04-06T23:11:35.834Z,9.20
2023-04-06T23:14:04.181Z,9.40
2023-04-06T23:16:32.435Z,10.40
2023-04-06T23:19:02.772Z,10.50
2023-04-06T23:21:33.169Z,10.60
2023-04-06T23:24:07.618Z,10.90
2023-04-06T23:26:37.159Z,10.70
2023-04-06T23:29:06.221Z,11.00
2023-04-06T23:31:34.837Z,9.50
2023-04-06T23:34:03.294Z,12.00
2023-04-06T23:36:33.417Z,10.50
2023-04-06T23:39:02.180Z,9.90
2023-04-06T23:41:30.732Z,11.90
2023-04-06T23:43:59.823Z,11.00
2023-04-06T23:46:28.231Z,15.10
2023-04-06T23:48:57.146Z,15.20
2023-04-06T23:51:25.424Z,14.40
2023-04-06T23:53:55.327Z,14.40
2023-04-06T23:56:23.988Z,15.60
2023-04-06T23:58:52.265Z,13.30
